Time,TemperatureF,DewpointF,PressureIn,WindDirection,WindDirectionDegrees,WindSpeedMPH,WindSpeedGustMPH,Humidity,HourlyPrecipIn,Conditions,Clouds,dailyrainin,SoftwareType,DateUTC
2013-09-16 00:11:00,60.0,56.0,30.02,SSW,200,0.0,0.0,88,0.00,,,-99.99,,2013-09-16 07:11:00,
2013-09-16 00:21:00,60.0,56.0,30.02,SSW,200,0.0,0.0,88,0.00,,,-99.99,,2013-09-16 07:21:00,
2013-09-16 00:52:00,60.0,57.0,30.02,SSW,200,0.0,0.0,89,0.00,,,0.00,,2013-09-16 07:52:00,
2013-09-16 01:11:00,60.0,57.0,30.02,SSW,200,0.0,0.0,89,0.00,,,0.00,,2013-09-16 08:11:00,
2013-09-16 01:22:00,60.0,57.0,30.02,SSW,200,0.0,0.0,89,0.00,,,0.00,,2013-09-16 08:22:00,
2013-09-16 01:42:00,59.0,56.0,30.03,SSW,200,0.0,0.0,90,0.00,,,0.00,,2013-09-16 08:42:00,
2013-09-16 01:52:00,59.0,56.0,30.03,SSW,200,0.0,0.0,90,0.00,,,0.00,,2013-09-16 08:52:00,
2013-09-16 02:11:00,59.0,56.0,30.03,SSW,200,0.0,0.0,90,0.00,,,0.00,,2013-09-16 09:11:00,
2013-09-16 02:22:00,59.0,56.0,30.03,SSW,200,0.0,0.0,90,0.00,,,0.00,,2013-09-16 09:22:00,
2013-09-16 02:53:00,59.0,56.0,30.03,SSW,200,0.0,0.0,91,0.00,,,0.00,,2013-09-16 09:53:00,
2013-09-16 03:03:00,59.0,56.0,30.03,SSW,200,0.0,0.0,91,0.00,,,0.00,,2013-09-16 10:03:00,
2013-09-16 03:12:00,59.0,56.0,30.03,SSW,200,0.0,0.0,91,0.00,,,0.00,,2013-09-16 10:12:00,
2013-09-16 03:23:00,59.0,56.0,30.03,SSW,200,0.0,0.0,91,0.00,,,0.00,,2013-09-16 10:23:00,
2013-09-16 03:53:00,59.0,56.0,30.04,SSW,200,0.0,0.0,91,0.00,,,0.00,,2013-09-16 10:53:00,
2013-09-16 04:12:00,59.0,56.0,30.05,SSW,200,0.0,0.0,91,0.00,,,0.00,,2013-09-16 11:12:00,
2013-09-16 04:22:00,59.0,56.0,30.05,SSW,200,0.0,0.0,91,0.00,,,0.00,,2013-09-16 11:22:00,
2013-09-16 04:52:00,59.0,57.0,30.05,SSW,200,0.0,0.0,92,0.00,,,0.00,,2013-09-16 11:52:00,
2013-09-16 05:12:00,59.0,56.0,30.04,SSW,200,0.0,0.0,91,0.00,,,0.00,,2013-09-16 12:12:00,
2013-09-16 05:22:00,59.0,56.0,30.04,SSW,200,0.0,0.0,91,0.00,,,0.00,,2013-09-16 12:22:00,
2013-09-16 05:42:00,58.0,56.0,30.05,SSW,200,0.0,0.0,92,0.00,,,0.00,,2013-09-16 12:42:00,
2013-09-16 05:52:00,58.0,56.0,30.05,SSW,200,0.0,0.0,92,0.00,,,0.00,,2013-09-16 12:52:00,
2013-09-16 06:11:00,58.0,56.0,30.05,SSW,200,0.0,0.0,92,0.00,,,0.00,,2013-09-16 13:11:00,
2013-09-16 06:21:00,58.0,56.0,30.05,SSW,200,0.0,0.0,92,0.00,,,0.00,,2013-09-16 13:21:00,
2013-09-16 06:52:00,58.0,56.0,30.05,SSW,200,0.0,0.0,92,0.00,,,0.00,,2013-09-16 13:52:00,
2013-09-16 07:11:00,58.0,56.0,30.05,SSW,200,0.0,0.0,92,0.00,,,0.00,,2013-09-16 14:11:00,
2013-09-16 07:21:00,58.0,56.0,30.05,SSW,200,0.0,0.0,92,0.00,,,0.00,,2013-09-16 14:21:00,
2013-09-16 07:42:00,58.0,56.0,30.06,SSW,200,0.0,0.0,92,0.00,,,0.00,,2013-09-16 14:42:00,
2013-09-16 07:52:00,58.0,56.0,30.06,SSW,200,0.0,0.0,92,0.00,,,0.00,,2013-09-16 14:52:00,
2013-09-16 08:11:00,58.0,56.0,30.06,SSW,200,0.0,0.0,93,0.00,,,0.00,,2013-09-16 15:11:00,
2013-09-16 08:22:00,58.0,56.0,30.06,SSW,200,0.0,0.0,93,0.00,,,0.00,,2013-09-16 15:22:00,
2013-09-16 08:43:00,59.0,57.0,30.07,SSW,200,0.0,0.0,92,0.00,,,0.00,,2013-09-16 15:43:00,
2013-09-16 08:53:00,59.0,57.0,30.07,SSW,200,0.0,0.0,92,0.00,,,0.00,,2013-09-16 15:53:00,
2013-09-16 09:12:00,59.0,57.0,30.07,SSW,200,0.0,0.0,92,0.00,,,0.00,,2013-09-16 16:12:00,
2013-09-16 09:23:00,59.0,57.0,30.07,SSW,200,0.0,0.0,92,0.00,,,0.00,,2013-09-16 16:23:00,
2013-09-16 09:43:00,60.0,57.0,30.07,SSW,200,0.0,0.0,89,0.00,,,0.00,,2013-09-16 16:43:00,
2013-09-16 09:52:00,60.0,57.0,30.07,SSW,200,0.0,0.0,89,0.00,,,0.00,,2013-09-16 16:52:00,
2013-09-16 10:23:00,63.0,58.0,30.08,SSW,200,0.0,0.0,85,0.00,,,0.00,,2013-09-16 17:23:00,
2013-09-16 10:33:00,63.0,58.0,30.08,SSW,200,0.0,0.0,85,0.00,,,0.00,,2013-09-16 17:33:00,
2013-09-16 10:53:00,63.0,58.0,30.08,SSW,200,0.0,0.0,85,0.00,,,0.00,,2013-09-16 17:53:00,
2013-09-16 11:12:00,64.0,58.0,30.08,SSW,200,0.0,0.0,80,0.00,,,0.00,,2013-09-16 18:12:00,
2013-09-16 11:22:00,64.0,58.0,30.08,SSW,200,0.0,0.0,80,0.00,,,0.00,,2013-09-16 18:22:00,
2013-09-16 11:52:00,66.0,59.0,30.08,SSW,200,0.0,0.0,77,0.00,,,0.00,,2013-09-16 18:52:00,
2013-09-16 12:11:00,68.0,59.0,30.08,SSW,199,0.0,0.0,73,0.00,,,0.00,,2013-09-16 19:11:00,
2013-09-16 12:22:00,68.0,59.0,30.08,SSW,199,0.0,0.0,73,0.00,,,0.00,,2013-09-16 19:22:00,
2013-09-16 12:42:00,69.0,59.0,30.07,South,181,0.0,0.0,71,0.00,,,0.00,,2013-09-16 19:42:00,
2013-09-16 12:53:00,69.0,59.0,30.07,South,181,0.0,0.0,71,0.00,,,0.00,,2013-09-16 19:53:00,
2013-09-16 13:11:00,73.0,60.0,30.07,East,98,0.0,3.0,64,0.00,,,0.00,,2013-09-16 20:11:00,
2013-09-16 13:22:00,73.0,60.0,30.07,East,98,0.0,3.0,64,0.00,,,0.00,,2013-09-16 20:22:00,
2013-09-16 13:43:00,76.0,59.0,30.06,East,97,4.0,4.0,56,0.00,,,0.00,,2013-09-16 20:43:00,
2013-09-16 13:52:00,74.0,60.0,30.07,East,89,1.0,4.0,62,0.00,,,0.00,,2013-09-16 20:52:00,
2013-09-16 14:02:00,74.0,60.0,30.07,East,89,1.0,4.0,62,0.00,,,0.00,,2013-09-16 21:02:00,
2013-09-16 14:21:00,73.0,61.0,30.06,East,90,1.0,4.0,65,0.00,,,0.00,,2013-09-16 21:21:00,
2013-09-16 14:34:00,73.0,61.0,30.06,East,90,1.0,4.0,65,0.00,,,0.00,,2013-09-16 21:34:00,
2013-09-16 14:55:00,73.0,61.0,30.06,East,90,1.0,4.0,65,0.00,,,0.00,,2013-09-16 21:55:00,
2013-09-16 15:13:00,72.0,59.0,30.06,SE,126,2.0,4.0,64,0.00,,,0.00,,2013-09-16 22:13:00,
2013-09-16 15:24:00,72.0,59.0,30.06,SE,126,2.0,4.0,64,0.00,,,0.00,,2013-09-16 22:24:00,
2013-09-16 15:43:00,73.0,59.0,30.05,East,87,2.0,4.0,62,0.00,,,0.00,,2013-09-16 22:43:00,
2013-09-16 15:53:00,73.0,59.0,30.05,East,87,2.0,4.0,62,0.00,,,0.00,,2013-09-16 22:53:00,
2013-09-16 16:22:00,72.0,60.0,30.04,North,5,2.0,5.0,65,0.00,,,0.00,,2013-09-16 23:22:00,
2013-09-16 16:33:00,72.0,60.0,30.04,North,5,2.0,5.0,65,0.00,,,0.00,,2013-09-16 23:33:00,
2013-09-16 16:43:00,72.0,60.0,30.04,North,5,2.0,5.0,65,0.00,,,0.00,,2013-09-16 23:43:00,
2013-09-16 16:52:00,72.0,60.0,30.04,North,5,2.0,5.0,65,0.00,,,0.00,,2013-09-16 23:52:00,
2013-09-16 17:21:00,71.0,59.0,30.03,North,5,2.0,3.0,67,0.00,,,0.00,,2013-09-17 00:21:00,
2013-09-16 17:42:00,69.0,58.0,30.02,SE,145,1.0,6.0,69,0.00,,,0.00,,2013-09-17 00:42:00,
2013-09-16 17:52:00,69.0,58.0,30.02,SE,145,1.0,6.0,69,0.00,,,0.00,,2013-09-17 00:52:00,
2013-09-16 18:11:00,68.0,58.0,30.01,South,188,2.0,3.0,71,0.00,,,0.00,,2013-09-17 01:11:00,
2013-09-16 18:21:00,67.0,58.0,30.01,SE,131,0.0,4.0,73,0.00,,,0.00,,2013-09-17 01:21:00,
2013-09-16 18:31:00,67.0,58.0,30.01,SE,131,0.0,4.0,73,0.00,,,0.00,,2013-09-17 01:31:00,
2013-09-16 18:42:00,67.0,58.0,30.01,SE,131,0.0,4.0,73,0.00,,,0.00,,2013-09-17 01:42:00,
2013-09-16 18:52:00,67.0,58.0,30.01,SE,131,0.0,4.0,73,0.00,,,0.00,,2013-09-17 01:52:00,
2013-09-16 19:11:00,66.0,58.0,30.01,SE,131,0.0,3.0,76,0.00,,,0.00,,2013-09-17 02:11:00,
2013-09-16 19:22:00,66.0,58.0,30.01,SE,131,0.0,3.0,76,0.00,,,0.00,,2013-09-17 02:22:00,
2013-09-16 19:42:00,65.0,58.0,30.01,SE,131,0.0,3.0,78,0.00,,,0.00,,2013-09-17 02:42:00,
2013-09-16 19:52:00,65.0,58.0,30.01,SE,131,0.0,3.0,78,0.00,,,0.00,,2013-09-17 02:52:00,
2013-09-16 20:11:00,64.0,57.0,30.00,SE,131,0.0,2.0,79,0.00,,,0.00,,2013-09-17 03:11:00,
2013-09-16 20:23:00,64.0,57.0,30.00,SE,131,0.0,2.0,79,0.00,,,0.00,,2013-09-17 03:23:00,
2013-09-16 20:54:00,64.0,58.0,30.00,SE,131,0.0,0.0,81,0.00,,,0.00,,2013-09-17 03:54:00,
2013-09-16 21:14:00,64.0,58.0,30.00,SE,131,0.0,1.0,82,0.00,,,0.00,,2013-09-17 04:14:00,
2013-09-16 21:24:00,64.0,58.0,30.00,SE,131,0.0,1.0,82,0.00,,,0.00,,2013-09-17 04:24:00,
2013-09-16 21:54:00,63.0,58.0,30.00,SE,131,0.0,0.0,83,0.00,,,0.00,,2013-09-17 04:54:00,
2013-09-16 22:12:00,62.0,57.0,30.00,SE,131,0.0,0.0,85,0.00,,,0.00,,2013-09-17 05:12:00,
2013-09-16 22:23:00,62.0,57.0,30.00,SE,131,0.0,0.0,85,0.00,,,0.00,,2013-09-17 05:23:00,
2013-09-16 22:52:00,61.0,57.0,29.99,SE,131,0.0,0.0,86,0.00,,,0.00,,2013-09-17 05:52:00,
2013-09-16 23:12:00,60.0,56.0,29.99,SE,131,0.0,0.0,87,0.00,,,0.00,,2013-09-17 06:12:00,
2013-09-16 23:22:00,60.0,56.0,29.99,SE,131,0.0,0.0,87,0.00,,,0.00,,2013-09-17 06:22:00,
2013-09-16 23:52:00,60.0,57.0,29.98,SE,131,0.0,0.0,89,0.00,,,0.00,,2013-09-17 06:52:00,